Aeroporto :
LOGIN :

Iscrizione | Disclaimer

   EN    FR    IT 

 










Sommario :    VFR   VFR Marginale   IFR   IFR Intensivo   IFR Molto Intensivo
Visibilità : 
Base nubi : 
>= 8 km
>= 3000ft
5 / 8 km
1000 / 3000 ft
1500m / 5 km
500 / 1000 ft
800 / 1500m
200 / 500 ft
< 800m
< 200 ft
Simboli :   Temporali  Nebbia  Neve Forte  Precipitazioni Forti  Vento > 20 kt
SIGMETs :   Varie  Temporali  Ghiacco  Turbolenza  Onda orograficha  Ceneri Vulcaniche







- Altitudine del aeroporto : 821 ft
- Codice IATA : LYS
- Carte del aeroporto


LFLL - Lyon St Exupéry / Satolas

ULTIMO METAR :
  • 172330Z 18013KT CAVOK 25/13 Q1013 NOSIG

METARs OBSOLETI :
  • 172300Z 18014KT CAVOK 25/13 Q1013 NOSIG
  • 172230Z 19015KT CAVOK 26/13 Q1013 NOSIG
  • 172200Z 19016KT CAVOK 27/13 Q1013 NOSIG
  • 172130Z 19017KT CAVOK 27/13 Q1013 NOSIG
  • 172100Z 19014KT CAVOK 27/14 Q1013 NOSIG

TAF TAF LFLL
Valido dal 18 a 00 ore il 19 a 06 ore UTC


172300Z 1800/1906 19012KT CAVOK
BECMG 1807/1809 19020G35KT
BECMG 1815/1818 VRB15KT SCT090CB
PROB30
TEMPO 1818/1821 TS
TEMPO 1821/1903 36012KT 4000 TSRA BKN025 BKN050CB
TEMPO 1903/1906 SHRA SCT025CB BKN040
Nessun NOTAM noto per questo aeroporto.



MetMap, La meteo Aeronautica in un colpo d'occhio ! - Copyright ORBIFLY Dicembre 2007 - Disclaimer

ORBIFLY MET'MAP TEAM :

Programmazione e sviluppo : Alexandra Zaïnal
Concezione e sviluppo : Baudouin d'Aumeries
Co-Programmazione e sviluppo : Marc-Olivier Méhu
Supporto tecnico e logistico : Manuel Goepfert
Aiuto per la traduzione : Arnaldo La Scala

Contatto : metmap@orbifly.com




FONTI E CREDITI :

   NOAA